createdAt,value
2019-03-08T00:00:11.984Z,990.71
2019-03-08T00:01:12.012Z,990.79
2019-03-08T00:02:12.043Z,990.83
2019-03-08T00:03:12.072Z,990.79
2019-03-08T00:04:12.100Z,990.78
2019-03-08T00:05:12.129Z,990.83
2019-03-08T00:06:12.160Z,990.85
2019-03-08T00:07:12.188Z,990.86
2019-03-08T00:08:12.220Z,990.88
2019-03-08T00:09:12.246Z,990.84
2019-03-08T00:10:12.274Z,990.93
2019-03-08T00:11:12.305Z,990.87
2019-03-08T00:12:12.335Z,990.87
2019-03-08T00:13:12.364Z,990.87
2019-03-08T00:14:12.393Z,990.95
2019-03-08T00:15:12.450Z,990.92
2019-03-08T00:16:12.452Z,990.97
2019-03-08T00:17:12.479Z,990.88
2019-03-08T00:18:12.510Z,990.92
2019-03-08T00:19:12.538Z,990.98
2019-03-08T00:20:12.569Z,990.90
2019-03-08T00:21:12.597Z,990.90
2019-03-08T00:22:12.628Z,991.04
2019-03-08T00:23:12.657Z,990.99
2019-03-08T00:24:12.685Z,991.14
2019-03-08T00:25:12.714Z,991.13
2019-03-08T00:26:12.743Z,991.13
2019-03-08T00:27:12.772Z,991.11
2019-03-08T00:28:12.801Z,991.17
2019-03-08T00:29:12.830Z,991.14
2019-03-08T00:30:12.859Z,991.20
2019-03-08T00:31:12.889Z,991.19
2019-03-08T00:32:12.918Z,991.23
2019-03-08T00:33:12.946Z,991.20
2019-03-08T00:34:12.975Z,991.22
2019-03-08T00:35:13.009Z,991.14
2019-03-08T00:36:13.034Z,991.20
2019-03-08T00:37:13.063Z,991.27
2019-03-08T00:38:13.092Z,991.34
2019-03-08T00:39:13.122Z,991.38
2019-03-08T00:40:13.150Z,991.37
2019-03-08T00:41:13.179Z,991.35
2019-03-08T00:42:13.208Z,991.38
2019-03-08T00:43:13.237Z,991.42
2019-03-08T00:44:13.268Z,991.40
2019-03-08T00:45:13.294Z,991.52
2019-03-08T00:46:13.325Z,991.45
2019-03-08T00:47:13.353Z,991.51
2019-03-08T00:48:13.383Z,991.46
2019-03-08T00:49:13.412Z,991.46
2019-03-08T00:50:13.442Z,991.55
2019-03-08T00:51:13.469Z,991.50
2019-03-08T00:52:13.499Z,991.57
2019-03-08T00:53:15.087Z,991.62
2019-03-08T00:54:13.557Z,991.66
2019-03-08T00:55:13.586Z,991.62
2019-03-08T00:56:13.616Z,991.56
2019-03-08T00:57:13.643Z,991.59
2019-03-08T00:58:13.672Z,991.57
2019-03-08T00:59:13.703Z,991.61
2019-03-08T01:00:13.731Z,991.55
2019-03-08T01:01:13.759Z,991.55
2019-03-08T01:02:13.788Z,991.58
2019-03-08T01:03:13.825Z,991.65
2019-03-08T01:04:13.847Z,991.64
2019-03-08T01:05:13.878Z,991.64
2019-03-08T01:06:13.905Z,991.56
2019-03-08T01:07:13.935Z,991.65
2019-03-08T01:08:13.964Z,991.61
2019-03-08T01:09:13.991Z,991.53
2019-03-08T01:10:14.019Z,991.61
2019-03-08T01:11:14.050Z,991.64
2019-03-08T01:12:14.080Z,991.65
2019-03-08T01:13:14.107Z,991.72
2019-03-08T01:14:14.136Z,991.62
2019-03-08T01:15:14.167Z,991.61
2019-03-08T01:16:14.193Z,991.65
2019-03-08T01:17:14.221Z,991.66
2019-03-08T01:18:14.249Z,991.65
2019-03-08T01:19:14.279Z,991.61
2019-03-08T01:20:14.307Z,991.71
2019-03-08T01:21:14.336Z,991.69
2019-03-08T01:22:14.367Z,991.69
2019-03-08T01:23:14.396Z,991.69
2019-03-08T01:24:14.424Z,991.69
2019-03-08T01:25:14.453Z,991.69
2019-03-08T01:26:14.481Z,991.73
2019-03-08T01:27:14.509Z,991.64
2019-03-08T01:28:14.540Z,991.75
2019-03-08T01:29:14.567Z,991.69
2019-03-08T01:30:14.597Z,991.75
2019-03-08T01:31:14.627Z,991.75
2019-03-08T01:32:14.655Z,991.83
2019-03-08T01:33:14.683Z,991.77
2019-03-08T01:34:14.711Z,991.76
2019-03-08T01:35:14.740Z,991.80
2019-03-08T01:36:14.769Z,991.75
2019-03-08T01:37:14.798Z,991.77
2019-03-08T01:38:14.826Z,991.80
2019-03-08T01:39:14.855Z,991.83
2019-03-08T01:40:14.885Z,991.85
2019-03-08T01:41:14.912Z,991.88
2019-03-08T01:42:14.943Z,991.95
2019-03-08T01:43:14.970Z,991.94
2019-03-08T01:44:15.000Z,991.91
2019-03-08T01:45:15.028Z,991.92
2019-03-08T01:46:15.056Z,991.88
2019-03-08T01:47:15.085Z,991.84
2019-03-08T01:48:15.114Z,991.83
2019-03-08T01:49:15.142Z,991.85
2019-03-08T01:50:15.173Z,991.90
2019-03-08T01:51:15.200Z,991.94
2019-03-08T01:52:15.229Z,991.96
2019-03-08T01:53:15.258Z,991.95
2019-03-08T01:54:15.286Z,991.94
2019-03-08T01:55:15.317Z,991.94
2019-03-08T01:56:15.343Z,991.97
2019-03-08T01:57:15.373Z,992.01
2019-03-08T01:58:15.402Z,992.05
2019-03-08T01:59:15.429Z,992.08
2019-03-08T02:00:15.457Z,992.07
2019-03-08T02:01:15.487Z,992.04
2019-03-08T02:02:15.515Z,992.12
2019-03-08T02:03:17.167Z,992.00
2019-03-08T02:04:15.573Z,992.13
2019-03-08T02:05:15.602Z,992.09
2019-03-08T02:06:15.629Z,992.18
2019-03-08T02:07:15.660Z,992.06
2019-03-08T02:08:15.689Z,992.07
2019-03-08T02:09:15.716Z,992.10
2019-03-08T02:10:15.744Z,992.16
2019-03-08T02:11:15.773Z,992.14
2019-03-08T02:12:15.801Z,992.15
2019-03-08T02:13:15.830Z,992.14
2019-03-08T02:14:15.861Z,992.14
2019-03-08T02:15:15.888Z,992.17
2019-03-08T02:16:15.918Z,992.08
2019-03-08T02:17:15.946Z,992.11
2019-03-08T02:18:15.976Z,992.12
2019-03-08T02:19:16.002Z,992.06
2019-03-08T02:20:16.032Z,992.09
2019-03-08T02:21:16.059Z,992.06
2019-03-08T02:22:16.087Z,992.02
2019-03-08T02:23:16.126Z,992.04
2019-03-08T02:24:16.160Z,992.00
2019-03-08T02:25:16.175Z,992.05
2019-03-08T02:26:16.202Z,992.06
2019-03-08T02:27:16.231Z,992.01
2019-03-08T02:28:16.260Z,992.05
2019-03-08T02:29:16.288Z,992.08
2019-03-08T02:30:16.316Z,992.04
2019-03-08T02:31:16.345Z,992.04
2019-03-08T02:32:16.373Z,991.98
2019-03-08T02:33:16.401Z,992.01
2019-03-08T02:34:16.431Z,991.97
2019-03-08T02:35:16.461Z,992.05
2019-03-08T02:36:16.489Z,991.95
2019-03-08T02:37:16.516Z,991.97
2019-03-08T02:38:16.544Z,991.99
2019-03-08T02:39:16.576Z,992.00
2019-03-08T02:40:16.602Z,991.93
2019-03-08T02:41:16.629Z,991.89
2019-03-08T02:42:16.658Z,991.87
2019-03-08T02:43:16.690Z,991.89
2019-03-08T02:44:16.715Z,991.91
2019-03-08T02:45:16.742Z,991.90
2019-03-08T02:46:16.771Z,991.97
2019-03-08T02:47:16.800Z,991.98
2019-03-08T02:48:16.832Z,991.95
2019-03-08T02:49:16.856Z,991.97
2019-03-08T02:50:16.885Z,992.00
2019-03-08T02:51:16.913Z,991.99
2019-03-08T02:52:16.944Z,991.95
2019-03-08T02:53:16.971Z,991.94
2019-03-08T02:54:16.998Z,991.94
2019-03-08T02:55:17.027Z,991.90
2019-03-08T02:56:17.058Z,991.99
2019-03-08T02:57:17.184Z,991.91
2019-03-08T02:58:17.112Z,991.92
2019-03-08T02:59:17.139Z,991.98
2019-03-08T03:00:17.169Z,991.98
2019-03-08T03:01:17.195Z,991.92
2019-03-08T03:02:17.223Z,991.97
2019-03-08T03:03:17.253Z,992.00
2019-03-08T03:04:17.282Z,992.00
2019-03-08T03:05:17.309Z,992.01
2019-03-08T03:06:17.339Z,992.05
2019-03-08T03:07:17.367Z,992.02
2019-03-08T03:08:17.395Z,992.00
2019-03-08T03:09:17.422Z,992.03
2019-03-08T03:10:17.455Z,992.09
2019-03-08T03:11:17.481Z,992.09
2019-03-08T03:12:17.808Z,992.01
2019-03-08T03:13:17.536Z,992.12
2019-03-08T03:14:17.563Z,992.03
2019-03-08T03:15:17.592Z,992.15
2019-03-08T03:16:17.621Z,992.11
2019-03-08T03:17:17.647Z,992.11
2019-03-08T03:18:17.676Z,992.20
2019-03-08T03:19:17.703Z,992.15
2019-03-08T03:20:17.734Z,992.12
2019-03-08T03:21:17.766Z,992.22
2019-03-08T03:22:17.790Z,992.17
2019-03-08T03:23:17.817Z,992.16
2019-03-08T03:24:17.846Z,992.18
2019-03-08T03:25:17.872Z,992.23
2019-03-08T03:26:17.951Z,992.18
2019-03-08T03:27:17.929Z,992.27
2019-03-08T03:28:17.957Z,992.24
2019-03-08T03:29:17.985Z,992.25
2019-03-08T03:30:18.015Z,992.27
2019-03-08T03:31:18.047Z,992.30
2019-03-08T03:32:18.071Z,992.25
2019-03-08T03:33:18.098Z,992.31
2019-03-08T03:34:18.128Z,992.37
2019-03-08T03:35:18.156Z,992.37
2019-03-08T03:36:18.184Z,992.33
2019-03-08T03:37:18.210Z,992.34
2019-03-08T03:38:18.239Z,992.40
2019-03-08T03:39:18.269Z,992.43
2019-03-08T03:40:18.299Z,992.42
2019-03-08T03:41:18.323Z,992.40
2019-03-08T03:42:18.350Z,992.47
2019-03-08T03:43:18.378Z,992.46
2019-03-08T03:44:18.407Z,992.44
2019-03-08T03:45:18.436Z,992.43
2019-03-08T03:46:18.461Z,992.50
2019-03-08T03:47:18.491Z,992.46
2019-03-08T03:48:18.520Z,992.48
2019-03-08T03:49:18.548Z,992.44
2019-03-08T03:50:18.928Z,992.56
2019-03-08T03:51:18.604Z,992.51
2019-03-08T03:52:18.633Z,992.48
2019-03-08T03:53:18.659Z,992.55
2019-03-08T03:54:18.690Z,992.56
2019-03-08T03:55:18.718Z,992.56
2019-03-08T03:56:18.746Z,992.65
2019-03-08T03:57:18.773Z,992.64
2019-03-08T03:58:18.800Z,992.63
2019-03-08T03:59:18.828Z,992.70
2019-03-08T04:00:18.857Z,992.76
2019-03-08T04:01:18.885Z,992.71
2019-03-08T04:02:18.913Z,992.72
2019-03-08T04:03:18.942Z,992.72
2019-03-08T04:04:18.970Z,992.73
2019-03-08T04:05:18.999Z,992.72
2019-03-08T04:06:19.028Z,992.73
2019-03-08T04:07:19.055Z,992.77
2019-03-08T04:08:19.083Z,992.82
2019-03-08T04:09:19.115Z,992.79
2019-03-08T04:10:19.146Z,992.83
2019-03-08T04:11:19.167Z,992.89
2019-03-08T04:12:19.195Z,992.90
2019-03-08T04:13:19.223Z,992.97
2019-03-08T04:14:19.251Z,993.01
2019-03-08T04:15:19.280Z,993.03
2019-03-08T04:16:19.308Z,993.07
2019-03-08T04:17:19.335Z,993.21
2019-03-08T04:18:21.819Z,993.24
2019-03-08T04:19:19.391Z,993.24
2019-03-08T04:20:19.423Z,993.27
2019-03-08T04:21:19.448Z,993.26
2019-03-08T04:22:19.478Z,993.27
2019-03-08T04:23:19.506Z,993.27
2019-03-08T04:24:19.535Z,993.36
2019-03-08T04:25:19.561Z,993.31
2019-03-08T04:26:19.589Z,993.38
2019-03-08T04:27:19.620Z,993.35
2019-03-08T04:28:19.646Z,993.36
2019-03-08T04:29:19.673Z,993.35
2019-03-08T04:30:19.705Z,993.38
2019-03-08T04:31:19.730Z,993.31
2019-03-08T04:32:19.757Z,993.41
2019-03-08T04:33:19.786Z,993.43
2019-03-08T04:34:19.813Z,993.45
2019-03-08T04:35:19.843Z,993.42
2019-03-08T04:36:19.870Z,993.46
2019-03-08T04:37:19.904Z,993.46
2019-03-08T04:38:19.927Z,993.44
2019-03-08T04:39:19.955Z,993.50
2019-03-08T04:40:19.983Z,993.50
2019-03-08T04:41:20.010Z,993.50
2019-03-08T04:42:20.039Z,993.50
2019-03-08T04:43:20.067Z,993.48
2019-03-08T04:44:20.096Z,993.51
2019-03-08T04:45:20.125Z,993.52
2019-03-08T04:46:20.151Z,993.52
2019-03-08T04:47:20.179Z,993.52
2019-03-08T04:48:20.207Z,993.51
2019-03-08T04:49:20.234Z,993.56
2019-03-08T04:50:20.268Z,993.55
2019-03-08T04:51:20.292Z,993.55
2019-03-08T04:52:20.319Z,993.59
2019-03-08T04:53:20.349Z,993.58
2019-03-08T04:54:20.374Z,993.60
2019-03-08T04:55:20.409Z,993.62
2019-03-08T04:56:20.432Z,993.66
2019-03-08T04:57:20.459Z,993.68
2019-03-08T04:58:20.489Z,993.66
2019-03-08T04:59:20.516Z,993.63
2019-03-08T05:00:20.545Z,993.67
2019-03-08T05:01:20.573Z,993.70
2019-03-08T05:02:20.600Z,993.71
2019-03-08T05:03:20.628Z,993.75
2019-03-08T05:04:20.657Z,993.73
2019-03-08T05:05:20.685Z,993.76
2019-03-08T05:06:20.712Z,993.79
2019-03-08T05:07:20.740Z,993.75
2019-03-08T05:08:20.769Z,993.75
2019-03-08T05:09:20.799Z,993.81
2019-03-08T05:10:20.826Z,993.83
2019-03-08T05:11:20.854Z,993.82
2019-03-08T05:12:20.885Z,993.83
2019-03-08T05:13:20.910Z,993.80
2019-03-08T05:14:20.940Z,993.85
2019-03-08T05:15:20.969Z,993.89
2019-03-08T05:16:20.999Z,993.91
2019-03-08T05:17:21.028Z,993.94
2019-03-08T05:18:21.055Z,993.89
2019-03-08T05:19:21.079Z,993.89
2019-03-08T05:20:21.107Z,993.92
2019-03-08T05:21:21.137Z,993.91
2019-03-08T05:22:23.154Z,993.87
2019-03-08T05:23:21.191Z,993.87
2019-03-08T05:24:21.220Z,993.90
2019-03-08T05:25:21.248Z,993.87
2019-03-08T05:26:21.278Z,993.89
2019-03-08T05:27:21.304Z,994.01
2019-03-08T05:28:21.333Z,993.96
2019-03-08T05:29:24.189Z,993.96
2019-03-08T05:30:21.389Z,993.97
2019-03-08T05:31:21.417Z,994.00
2019-03-08T05:32:21.444Z,994.00
2019-03-08T05:33:21.473Z,993.99
2019-03-08T05:34:21.501Z,994.01
2019-03-08T05:35:21.528Z,994.03
2019-03-08T05:36:21.558Z,994.02
2019-03-08T05:37:21.585Z,994.07
2019-03-08T05:38:21.613Z,994.05
2019-03-08T05:39:21.640Z,994.06
2019-03-08T05:40:21.668Z,994.06
2019-03-08T05:41:21.706Z,994.07
2019-03-08T05:42:21.770Z,994.09
2019-03-08T05:43:21.754Z,994.13
2019-03-08T05:44:21.783Z,994.17
2019-03-08T05:45:21.823Z,994.22
2019-03-08T05:46:21.837Z,994.18
2019-03-08T05:47:21.866Z,994.22
2019-03-08T05:48:21.895Z,994.23
2019-03-08T05:49:21.923Z,994.25
2019-03-08T05:50:21.951Z,994.31
2019-03-08T05:51:21.979Z,994.31
2019-03-08T05:52:22.008Z,994.33
2019-03-08T05:53:22.034Z,994.30
2019-03-08T05:54:22.063Z,994.24
2019-03-08T05:55:22.092Z,994.32
2019-03-08T05:56:22.118Z,994.31
2019-03-08T05:57:22.145Z,994.31
2019-03-08T05:58:22.176Z,994.34
2019-03-08T05:59:22.207Z,994.33
2019-03-08T06:00:31.304Z,994.37
2019-03-08T06:01:22.260Z,994.41
2019-03-08T06:02:22.287Z,994.39
2019-03-08T06:03:22.315Z,994.37
2019-03-08T06:04:22.344Z,994.33
2019-03-08T06:05:22.373Z,994.37
2019-03-08T06:06:22.399Z,994.39
2019-03-08T06:07:22.428Z,994.39
2019-03-08T06:08:22.455Z,994.39
2019-03-08T06:09:22.482Z,994.41
2019-03-08T06:10:22.511Z,994.37
2019-03-08T06:11:22.538Z,994.37
2019-03-08T06:12:22.567Z,994.39
2019-03-08T06:13:22.595Z,994.47
2019-03-08T06:14:22.621Z,994.47
2019-03-08T06:15:22.652Z,994.45
2019-03-08T06:16:22.680Z,994.46
2019-03-08T06:17:22.705Z,994.50
2019-03-08T06:18:22.734Z,994.41
2019-03-08T06:19:22.762Z,994.49
2019-03-08T06:20:22.794Z,994.45
2019-03-08T06:21:22.817Z,994.45
2019-03-08T06:22:22.846Z,994.47
2019-03-08T06:23:22.876Z,994.48
2019-03-08T06:24:22.903Z,994.48
2019-03-08T06:25:22.933Z,994.49
2019-03-08T06:26:22.958Z,994.48
2019-03-08T06:27:22.987Z,994.42
2019-03-08T06:28:23.013Z,994.51
2019-03-08T06:29:23.040Z,994.50
2019-03-08T06:30:23.070Z,994.49
2019-03-08T06:31:23.096Z,994.50
2019-03-08T06:32:23.126Z,994.48
2019-03-08T06:33:23.153Z,994.50
2019-03-08T06:34:23.180Z,994.57
2019-03-08T06:35:23.209Z,994.53
2019-03-08T06:36:23.238Z,994.55
2019-03-08T06:37:23.265Z,994.54
2019-03-08T06:38:23.293Z,994.52
2019-03-08T06:39:23.324Z,994.59
2019-03-08T06:40:23.351Z,994.67
2019-03-08T06:41:23.378Z,994.63
2019-03-08T06:42:23.407Z,994.61
2019-03-08T06:43:23.435Z,994.63
2019-03-08T06:44:23.463Z,994.64
2019-03-08T06:45:23.494Z,994.63
2019-03-08T06:46:23.521Z,994.66
2019-03-08T06:47:23.548Z,994.64
2019-03-08T06:48:23.576Z,994.68
2019-03-08T06:49:23.603Z,994.70
2019-03-08T06:50:23.631Z,994.75
2019-03-08T06:51:23.662Z,994.74
2019-03-08T06:52:23.690Z,994.78
2019-03-08T06:53:23.718Z,994.83
2019-03-08T06:54:23.754Z,994.85
2019-03-08T06:55:23.775Z,994.85
2019-03-08T06:56:23.806Z,994.85
2019-03-08T06:57:23.832Z,994.85
2019-03-08T06:58:23.859Z,994.92
2019-03-08T06:59:23.888Z,994.87
2019-03-08T07:00:23.916Z,994.87
2019-03-08T07:01:23.946Z,994.91
2019-03-08T07:02:23.973Z,994.92
2019-03-08T07:03:24.001Z,994.90
2019-03-08T07:04:24.030Z,994.88
2019-03-08T07:05:24.059Z,994.98
2019-03-08T07:06:24.089Z,994.98
2019-03-08T07:07:24.122Z,995.05
2019-03-08T07:08:24.147Z,995.05
2019-03-08T07:09:24.174Z,995.07
2019-03-08T07:10:24.203Z,995.11
2019-03-08T07:11:24.231Z,995.15
2019-03-08T07:12:24.262Z,995.18
2019-03-08T07:13:24.301Z,995.14
2019-03-08T07:14:24.319Z,995.20
2019-03-08T07:15:24.350Z,995.18
2019-03-08T07:16:24.377Z,995.20
2019-03-08T07:17:24.407Z,995.22
2019-03-08T07:18:24.434Z,995.30
2019-03-08T07:19:24.463Z,995.28
2019-03-08T07:20:24.495Z,995.29
2019-03-08T07:21:24.520Z,995.35
2019-03-08T07:22:24.551Z,995.38
2019-03-08T07:23:27.910Z,995.41
2019-03-08T07:24:24.605Z,995.41
2019-03-08T07:25:24.635Z,995.46
2019-03-08T07:26:24.663Z,995.45
2019-03-08T07:27:24.691Z,995.49
2019-03-08T07:28:24.721Z,995.52
2019-03-08T07:29:24.747Z,995.49
2019-03-08T07:30:24.777Z,995.59
2019-03-08T07:31:24.805Z,995.60
2019-03-08T07:32:24.835Z,995.64
2019-03-08T07:33:24.864Z,995.65
2019-03-08T07:34:24.892Z,995.69
2019-03-08T07:35:24.923Z,995.73
2019-03-08T07:36:24.987Z,995.76
2019-03-08T07:37:24.980Z,995.76
2019-03-08T07:38:25.006Z,995.78
2019-03-08T07:39:25.036Z,995.78
2019-03-08T07:40:25.066Z,995.83
2019-03-08T07:41:25.094Z,995.82
2019-03-08T07:42:25.122Z,995.83
2019-03-08T07:43:25.152Z,995.81
2019-03-08T07:44:25.182Z,995.84
2019-03-08T07:45:27.762Z,995.90
2019-03-08T07:46:25.243Z,995.91
2019-03-08T07:47:25.268Z,995.88
2019-03-08T07:48:25.347Z,995.92
2019-03-08T07:49:25.326Z,995.91
2019-03-08T07:50:25.354Z,995.97
2019-03-08T07:51:25.382Z,995.99
2019-03-08T07:52:25.412Z,996.05
2019-03-08T07:53:25.440Z,996.16
2019-03-08T07:54:25.470Z,996.09
2019-03-08T07:55:25.497Z,996.10
2019-03-08T07:56:25.527Z,996.21
2019-03-08T07:57:25.554Z,996.28
2019-03-08T07:58:25.583Z,996.36
2019-03-08T07:59:25.613Z,996.33
2019-03-08T08:00:25.641Z,996.29
2019-03-08T08:01:25.673Z,996.29
2019-03-08T08:02:25.698Z,996.33
2019-03-08T08:03:25.729Z,996.36
2019-03-08T08:04:25.756Z,996.38
2019-03-08T08:05:25.784Z,996.34
2019-03-08T08:06:25.814Z,996.46
2019-03-08T08:07:25.842Z,996.40
2019-03-08T08:08:25.872Z,996.42
2019-03-08T08:09:25.899Z,996.44
2019-03-08T08:10:25.929Z,996.50
2019-03-08T08:11:25.958Z,996.57
2019-03-08T08:12:25.986Z,996.60
2019-03-08T08:13:26.014Z,996.54
2019-03-08T08:14:26.043Z,996.52
2019-03-08T08:15:26.074Z,996.55
2019-03-08T08:16:26.101Z,996.70
2019-03-08T08:17:26.130Z,996.71
2019-03-08T08:18:26.159Z,996.58
2019-03-08T08:19:26.188Z,996.74
2019-03-08T08:20:26.218Z,996.71
2019-03-08T08:21:26.245Z,996.72
2019-03-08T08:22:26.273Z,996.70
2019-03-08T08:23:34.026Z,996.77
2019-03-08T08:24:26.334Z,996.73
2019-03-08T08:25:26.360Z,996.78
2019-03-08T08:26:26.391Z,996.77
2019-03-08T08:27:26.419Z,996.79
2019-03-08T08:28:26.449Z,996.79
2019-03-08T08:29:34.701Z,996.83
2019-03-08T08:30:26.506Z,996.90
2019-03-08T08:31:26.536Z,996.91
2019-03-08T08:32:26.567Z,996.92
2019-03-08T08:33:26.644Z,996.95
2019-03-08T08:34:26.623Z,996.95
2019-03-08T08:35:26.653Z,996.99
2019-03-08T08:36:26.681Z,996.99
2019-03-08T08:37:26.710Z,997.05
2019-03-08T08:38:26.739Z,997.07
2019-03-08T08:39:26.769Z,997.21
2019-03-08T08:40:26.800Z,997.25
2019-03-08T08:41:26.828Z,997.38
2019-03-08T08:42:26.858Z,997.44
2019-03-08T08:43:26.886Z,997.35
2019-03-08T08:44:26.916Z,997.32
2019-03-08T08:45:26.945Z,997.40
2019-03-08T08:46:26.976Z,997.73
2019-03-08T08:47:27.006Z,997.23
2019-03-08T08:48:27.036Z,997.34
2019-03-08T08:49:27.065Z,997.20
2019-03-08T08:50:27.096Z,997.21
2019-03-08T08:51:27.127Z,997.25
2019-03-08T08:52:27.161Z,997.25
2019-03-08T08:53:27.186Z,997.20
2019-03-08T08:54:27.219Z,997.24
2019-03-08T08:55:27.250Z,997.22
2019-03-08T08:56:27.280Z,997.28
2019-03-08T08:57:27.313Z,997.29
2019-03-08T08:58:27.346Z,997.37
2019-03-08T08:59:27.372Z,997.45
2019-03-08T09:00:27.402Z,997.44
2019-03-08T09:01:27.433Z,997.49
2019-03-08T09:02:27.463Z,997.46
2019-03-08T09:03:27.498Z,997.90
2019-03-08T09:04:27.526Z,997.39
2019-03-08T09:05:27.554Z,998.05
2019-03-08T09:06:27.585Z,997.66
2019-03-08T09:07:27.617Z,997.54
2019-03-08T09:08:27.648Z,997.42
2019-03-08T09:09:27.679Z,997.40
2019-03-08T09:10:27.712Z,997.47
2019-03-08T09:11:27.743Z,997.57
2019-03-08T09:12:27.776Z,997.57
2019-03-08T09:13:27.805Z,997.54
2019-03-08T09:14:27.839Z,997.66
2019-03-08T09:15:27.871Z,997.66
2019-03-08T09:16:27.903Z,997.68
2019-03-08T09:17:27.933Z,997.69
2019-03-08T09:18:27.966Z,997.69
2019-03-08T09:19:27.996Z,997.74
2019-03-08T09:20:28.033Z,997.79
2019-03-08T09:21:28.061Z,997.75
2019-03-08T09:22:28.091Z,997.78
2019-03-08T09:23:28.123Z,997.99
2019-03-08T09:24:28.154Z,998.44
2019-03-08T09:25:28.230Z,997.80
2019-03-08T09:26:28.223Z,998.45
2019-03-08T09:27:28.252Z,998.51
2019-03-08T09:28:28.335Z,998.52
2019-03-08T09:29:28.319Z,998.63
2019-03-08T09:31:28.386Z,998.49
2019-03-08T09:32:28.421Z,998.52
2019-03-08T09:33:28.476Z,997.73
2019-03-08T09:34:28.490Z,997.74
2019-03-08T09:35:28.527Z,998.62
2019-03-08T09:36:28.560Z,997.74
2019-03-08T09:37:28.598Z,998.10
2019-03-08T09:39:29.304Z,998.63
2019-03-08T09:42:28.783Z,997.67
2019-03-08T09:43:28.822Z,997.72
2019-03-08T09:44:28.863Z,997.90
2019-03-08T09:45:29.100Z,997.82
2019-03-08T09:46:28.935Z,998.64
2019-03-08T09:47:28.973Z,998.74
2019-03-08T09:48:29.011Z,997.78
2019-03-08T09:49:29.050Z,997.67
2019-03-08T09:50:29.110Z,997.66
2019-03-08T09:51:29.124Z,997.73
2019-03-08T09:52:29.163Z,997.81
2019-03-08T09:53:29.200Z,997.79
2019-03-08T09:54:29.237Z,997.84
2019-03-08T09:55:29.274Z,997.84
2019-03-08T09:56:29.310Z,997.81
2019-03-08T09:57:29.347Z,997.82
2019-03-08T09:58:29.383Z,997.79
2019-03-08T09:59:29.419Z,997.88
2019-03-08T10:00:29.456Z,997.84
2019-03-08T10:01:29.491Z,997.98
2019-03-08T10:02:29.526Z,997.98
2019-03-08T10:03:29.563Z,998.07
2019-03-08T10:04:29.601Z,998.03
2019-03-08T10:05:29.634Z,998.26
2019-03-08T10:06:29.668Z,997.89
2019-03-08T10:07:29.705Z,997.83
2019-03-08T10:08:29.745Z,997.86
2019-03-08T10:09:29.776Z,997.94
2019-03-08T10:10:29.810Z,998.60
2019-03-08T10:11:29.845Z,997.94
2019-03-08T10:12:29.881Z,997.84
2019-03-08T10:13:29.916Z,997.90
2019-03-08T10:14:29.948Z,998.01
2019-03-08T10:15:29.988Z,998.07
2019-03-08T10:16:30.019Z,998.47
2019-03-08T10:17:30.071Z,999.28
2019-03-08T10:18:30.089Z,999.40
2019-03-08T10:19:30.123Z,998.06
2019-03-08T10:20:30.159Z,998.04
2019-03-08T10:21:30.194Z,998.06
2019-03-08T10:22:30.231Z,998.13
2019-03-08T10:23:30.265Z,999.09
2019-03-08T10:24:30.300Z,998.10
2019-03-08T10:25:30.335Z,998.17
2019-03-08T10:26:30.374Z,998.27
2019-03-08T10:27:37.805Z,998.58
2019-03-08T10:28:30.442Z,998.14
2019-03-08T10:29:30.478Z,998.08
2019-03-08T10:30:31.966Z,998.09
2019-03-08T10:31:30.548Z,998.06
2019-03-08T10:32:37.047Z,998.05
2019-03-08T10:33:30.618Z,998.05
2019-03-08T10:34:30.652Z,998.16
2019-03-08T10:35:30.690Z,998.12
2019-03-08T10:36:30.722Z,998.07
2019-03-08T10:37:30.755Z,998.12
2019-03-08T10:38:30.812Z,998.12
2019-03-08T10:39:31.259Z,998.16
2019-03-08T10:40:30.858Z,998.09
2019-03-08T10:41:30.894Z,998.14
2019-03-08T10:42:30.941Z,998.20
2019-03-08T10:43:30.960Z,998.18
2019-03-08T10:44:30.994Z,998.19
2019-03-08T10:45:31.026Z,998.21
2019-03-08T10:46:31.063Z,998.24
2019-03-08T10:47:31.258Z,998.23
2019-03-08T10:48:31.127Z,998.29
2019-03-08T10:49:31.159Z,998.33
2019-03-08T10:50:31.423Z,998.26
2019-03-08T10:51:31.225Z,998.32
2019-03-08T10:52:31.259Z,998.27
2019-03-08T10:53:31.289Z,998.31
2019-03-08T10:54:31.321Z,998.32
2019-03-08T10:55:31.356Z,998.42
2019-03-08T10:56:31.414Z,998.40
2019-03-08T10:57:31.419Z,998.47
2019-03-08T10:58:31.450Z,998.56
2019-03-08T10:59:31.553Z,998.49
2019-03-08T11:00:31.516Z,998.52
2019-03-08T11:01:31.547Z,998.52
2019-03-08T11:02:31.580Z,998.50
2019-03-08T11:03:31.613Z,998.49
2019-03-08T11:04:31.645Z,998.59
2019-03-08T11:05:31.675Z,998.63
2019-03-08T11:06:31.710Z,998.66
2019-03-08T11:07:31.739Z,998.99
2019-03-08T11:08:31.771Z,999.90
2019-03-08T11:09:31.803Z,999.94
2019-03-08T11:10:31.842Z,998.77
2019-03-08T11:11:31.869Z,998.55
2019-03-08T11:12:31.925Z,998.53
2019-03-08T11:13:31.936Z,998.52
2019-03-08T11:14:31.970Z,998.61
2019-03-08T11:15:32.002Z,998.64
2019-03-08T11:16:32.038Z,998.63
2019-03-08T11:17:32.086Z,998.65
2019-03-08T11:18:32.103Z,998.71
2019-03-08T11:19:32.136Z,998.64
2019-03-08T11:20:32.171Z,998.67
2019-03-08T11:21:32.206Z,999.12
2019-03-08T11:22:32.242Z,998.71
2019-03-08T11:23:32.273Z,998.93
2019-03-08T11:24:32.309Z,998.77
2019-03-08T11:25:35.162Z,998.53
2019-03-08T11:26:32.376Z,998.49
2019-03-08T11:27:32.413Z,998.48
2019-03-08T11:28:32.447Z,998.49
2019-03-08T11:29:32.483Z,998.62
2019-03-08T11:30:32.518Z,998.67
2019-03-08T11:31:32.554Z,998.61
2019-03-08T11:32:32.588Z,998.80
2019-03-08T11:33:32.620Z,999.08
2019-03-08T11:34:32.656Z,998.86
2019-03-08T11:35:32.690Z,998.73
2019-03-08T11:36:32.724Z,998.65
2019-03-08T11:37:32.807Z,998.64
2019-03-08T11:38:32.794Z,998.57
2019-03-08T11:39:32.827Z,998.53
2019-03-08T11:40:32.865Z,998.68
2019-03-08T11:41:32.899Z,999.62
2019-03-08T11:42:32.933Z,999.93
2019-03-08T11:43:32.970Z,998.67
2019-03-08T11:45:33.041Z,998.81
2019-03-08T11:46:33.079Z,1000.24
2019-03-08T11:47:33.112Z,998.59
2019-03-08T11:48:33.150Z,998.58
2019-03-08T11:49:33.188Z,999.77
2019-03-08T11:50:33.221Z,999.84
2019-03-08T11:51:33.588Z,998.62
2019-03-08T11:52:33.320Z,998.47
2019-03-08T11:53:33.355Z,998.48
2019-03-08T11:54:40.571Z,998.83
2019-03-08T11:55:33.839Z,998.44
2019-03-08T11:56:35.014Z,998.45
2019-03-08T11:57:33.483Z,998.47
2019-03-08T11:58:33.521Z,999.22
2019-03-08T11:59:33.558Z,1000.63
2019-03-08T12:00:33.596Z,1000.64
2019-03-08T12:01:33.634Z,998.63
2019-03-08T12:02:37.694Z,999.33
2019-03-08T12:03:33.711Z,998.44
2019-03-08T12:04:33.750Z,998.39
2019-03-08T12:05:33.787Z,998.45
2019-03-08T12:06:34.892Z,998.43
2019-03-08T12:07:33.867Z,998.40
2019-03-08T12:08:33.904Z,998.99
2019-03-08T12:09:34.165Z,1000.65
2019-03-08T12:10:33.980Z,999.33
2019-03-08T12:11:34.021Z,999.39
2019-03-08T12:12:34.060Z,998.54
2019-03-08T12:13:34.099Z,998.64
2019-03-08T12:14:34.137Z,998.89
2019-03-08T12:15:34.177Z,999.17
2019-03-08T12:16:34.216Z,998.58
2019-03-08T12:17:34.256Z,998.79
2019-03-08T12:18:34.374Z,998.69
2019-03-08T12:19:34.332Z,998.37
2019-03-08T12:20:34.372Z,998.45
2019-03-08T12:21:34.412Z,1000.55
2019-03-08T12:22:34.450Z,998.80
2019-03-08T12:23:34.488Z,1000.57
2019-03-08T12:24:34.529Z,1000.70
2019-03-08T12:25:34.566Z,1000.70
2019-03-08T12:26:34.606Z,1000.78
2019-03-08T12:27:34.646Z,1000.66
2019-03-08T12:28:34.689Z,1000.47
2019-03-08T12:29:34.727Z,998.33
2019-03-08T12:30:34.770Z,998.56
2019-03-08T12:31:34.809Z,1000.87
2019-03-08T12:32:34.851Z,999.01
2019-03-08T12:33:34.894Z,998.40